createdAt,value
2023-01-19T00:02:32.293Z,18.50
2023-01-19T00:07:38.282Z,19.53
2023-01-19T00:10:05.537Z,19.60
2023-01-19T00:12:39.293Z,18.93
2023-01-19T00:15:06.470Z,18.83
2023-01-19T00:17:39.248Z,20.37
2023-01-19T00:20:06.782Z,19.57
2023-01-19T00:22:40.300Z,19.23
2023-01-19T00:25:07.247Z,19.23
2023-01-19T00:27:41.333Z,20.53
2023-01-19T00:30:10.074Z,19.67
2023-01-19T00:32:43.246Z,19.57
2023-01-19T00:35:09.863Z,20.20
2023-01-19T00:37:43.283Z,19.83
2023-01-19T00:40:10.576Z,20.07
2023-01-19T00:42:47.322Z,19.23
2023-01-19T00:45:16.753Z,19.63
2023-01-19T00:47:43.388Z,19.63
2023-01-19T00:50:18.263Z,19.07
2023-01-19T00:52:51.319Z,19.70
2023-01-19T00:55:24.310Z,18.97
2023-01-19T00:57:51.235Z,19.87
2023-01-19T01:00:39.358Z,19.53
2023-01-19T01:03:12.321Z,20.93
2023-01-19T01:05:41.577Z,21.23
2023-01-19T01:08:11.336Z,19.45
2023-01-19T01:10:44.330Z,19.05
2023-01-19T01:13:21.462Z,19.53
2023-01-19T01:16:08.297Z,18.55
2023-01-19T01:18:41.255Z,19.47
2023-01-19T01:21:13.007Z,19.13
2023-01-19T01:23:46.323Z,19.83
2023-01-19T01:26:12.943Z,20.10
2023-01-19T01:28:46.341Z,18.43
2023-01-19T01:31:13.050Z,19.00
2023-01-19T01:33:41.985Z,19.00
2023-01-19T01:36:17.266Z,19.90
2023-01-19T01:38:50.319Z,18.80
2023-01-19T01:41:16.965Z,18.87
2023-01-19T01:43:46.979Z,18.47
2023-01-19T01:49:15.119Z,16.33
2023-01-19T01:51:59.302Z,18.43
2023-01-19T01:54:32.316Z,18.00
2023-01-19T01:57:10.300Z,18.10
2023-01-19T01:59:49.329Z,17.67
2023-01-19T02:02:52.356Z,18.40
2023-01-19T02:05:33.464Z,17.60
2023-01-19T02:08:51.333Z,16.57
2023-01-19T02:11:43.256Z,17.17
2023-01-19T02:14:09.900Z,17.30
2023-01-19T02:16:44.317Z,17.67
2023-01-19T02:19:16.820Z,17.50
2023-01-19T02:22:12.292Z,17.70
2023-01-19T02:24:45.359Z,17.20
2023-01-19T02:27:12.545Z,18.40
2023-01-19T02:29:46.244Z,18.87
2023-01-19T02:32:19.369Z,19.87
2023-01-19T02:34:46.036Z,19.20
2023-01-19T02:37:21.310Z,20.27
2023-01-19T02:39:52.517Z,19.70
2023-01-19T02:42:28.260Z,18.90
2023-01-19T02:44:56.878Z,19.47
2023-01-19T02:47:31.226Z,18.07
2023-01-19T02:49:59.736Z,18.90
2023-01-19T02:52:34.234Z,18.77
2023-01-19T02:55:13.343Z,17.27
2023-01-19T02:58:22.250Z,16.83
2023-01-19T03:01:23.396Z,17.53
2023-01-19T03:04:24.246Z,17.93
2023-01-19T03:07:14.657Z,16.77
2023-01-19T03:10:12.380Z,16.83
2023-01-19T03:12:48.067Z,16.37
2023-01-19T03:15:34.269Z,16.80
2023-01-19T03:18:09.224Z,15.23
2023-01-19T03:20:44.243Z,15.43
2023-01-19T03:23:13.555Z,16.40
2023-01-19T03:25:51.304Z,15.63
2023-01-19T03:28:20.789Z,14.47
2023-01-19T03:31:03.349Z,16.83
2023-01-19T03:33:34.199Z,16.03
2023-01-19T03:36:14.293Z,17.83
2023-01-19T03:38:42.932Z,16.97
2023-01-19T03:41:20.279Z,15.47
2023-01-19T03:43:49.839Z,15.43
2023-01-19T03:46:25.373Z,14.40
2023-01-19T03:48:52.508Z,14.43
2023-01-19T03:51:26.246Z,15.57
2023-01-19T03:53:52.889Z,15.93
2023-01-19T03:56:31.261Z,15.60
2023-01-19T03:58:57.911Z,15.03
2023-01-19T04:01:37.415Z,15.47
2023-01-19T04:04:10.262Z,16.27
2023-01-19T04:06:43.265Z,15.50
2023-01-19T04:09:09.954Z,16.60
2023-01-19T04:11:43.269Z,16.30
2023-01-19T04:14:09.956Z,16.17
2023-01-19T04:16:43.287Z,16.27
2023-01-19T04:19:16.321Z,17.03
2023-01-19T04:21:42.937Z,17.67
2023-01-19T04:24:10.694Z,17.80
2023-01-19T04:26:44.324Z,18.27
2023-01-19T04:29:11.048Z,16.57
2023-01-19T04:31:44.283Z,17.47
2023-01-19T04:34:10.930Z,18.00
2023-01-19T04:36:44.291Z,17.97
2023-01-19T04:39:11.729Z,17.57
2023-01-19T04:41:38.440Z,18.97
2023-01-19T04:44:12.247Z,18.13
2023-01-19T04:46:38.913Z,17.87
2023-01-19T04:49:05.608Z,18.80
2023-01-19T04:51:39.252Z,19.17
2023-01-19T04:54:12.833Z,17.57
2023-01-19T04:56:47.302Z,18.07
2023-01-19T04:59:14.710Z,18.17
2023-01-19T05:01:55.362Z,17.23
2023-01-19T05:04:29.234Z,19.00
2023-01-19T05:06:56.013Z,18.40
2023-01-19T05:09:29.282Z,18.60
2023-01-19T05:11:55.908Z,18.87
2023-01-19T05:14:29.248Z,18.07
2023-01-19T05:16:56.085Z,18.73
2023-01-19T05:19:30.335Z,18.03
2023-01-19T05:21:57.565Z,18.47
2023-01-19T05:24:24.213Z,19.77
2023-01-19T05:26:57.243Z,18.50
2023-01-19T05:29:24.196Z,19.20
2023-01-19T05:31:57.333Z,19.03
2023-01-19T05:34:31.272Z,19.60
2023-01-19T05:37:04.365Z,18.53
2023-01-19T05:39:31.116Z,19.37
2023-01-19T05:42:04.225Z,20.10
2023-01-19T05:44:37.249Z,19.67
2023-01-19T05:47:04.015Z,19.97
2023-01-19T05:49:37.470Z,20.73
2023-01-19T05:52:04.215Z,18.27
2023-01-19T05:54:47.303Z,20.30
2023-01-19T05:57:14.493Z,19.97
2023-01-19T05:59:41.125Z,21.17
2023-01-19T06:02:15.403Z,20.70
2023-01-19T06:04:48.304Z,22.40
2023-01-19T06:07:14.932Z,19.73
2023-01-19T06:09:48.253Z,19.17
2023-01-19T06:12:14.965Z,20.97
2023-01-19T06:14:48.288Z,20.43
2023-01-19T06:17:14.958Z,19.77
2023-01-19T06:19:41.911Z,19.37
2023-01-19T06:22:15.352Z,18.73
2023-01-19T06:24:41.999Z,18.67
2023-01-19T06:27:09.145Z,20.27
2023-01-19T06:29:42.236Z,18.40
2023-01-19T06:32:08.855Z,19.30
2023-01-19T06:34:42.216Z,17.67
2023-01-19T06:37:09.049Z,18.07
2023-01-19T06:39:37.750Z,19.93
2023-01-19T06:42:11.220Z,18.67
2023-01-19T06:44:44.211Z,18.43
2023-01-19T06:47:15.529Z,19.10
2023-01-19T06:49:49.255Z,18.63
2023-01-19T06:52:17.474Z,21.73
2023-01-19T06:54:54.202Z,19.33
2023-01-19T06:57:22.109Z,19.97
2023-01-19T06:59:55.211Z,19.47
2023-01-19T07:02:28.853Z,19.47
2023-01-19T07:05:09.222Z,17.07
2023-01-19T07:07:44.794Z,17.67
2023-01-19T07:10:22.244Z,17.47
2023-01-19T07:12:49.138Z,19.17
2023-01-19T07:15:24.240Z,17.13
2023-01-19T07:17:50.837Z,19.00
2023-01-19T07:20:19.523Z,17.23
2023-01-19T07:22:53.301Z,17.33
2023-01-19T07:25:20.884Z,17.97
2023-01-19T07:27:54.282Z,17.83
2023-01-19T07:30:27.354Z,17.70
2023-01-19T07:32:58.527Z,17.20
2023-01-19T07:35:25.975Z,17.40
2023-01-19T07:37:59.262Z,16.03
2023-01-19T07:40:32.248Z,16.23
2023-01-19T07:43:05.224Z,17.07
2023-01-19T07:45:31.831Z,15.40
2023-01-19T07:47:58.475Z,16.40
2023-01-19T07:50:34.221Z,17.10
2023-01-19T07:53:15.202Z,16.60
2023-01-19T07:55:41.990Z,16.33
2023-01-19T07:58:15.205Z,16.20
2023-01-19T08:01:02.249Z,17.03
2023-01-19T08:03:35.244Z,16.23
2023-01-19T08:06:02.583Z,16.10
2023-01-19T08:08:40.305Z,16.43
2023-01-19T08:11:08.491Z,16.03
2023-01-19T08:13:41.278Z,15.80
2023-01-19T08:16:08.154Z,17.03
2023-01-19T08:18:41.244Z,17.43
2023-01-19T08:21:08.041Z,16.80
2023-01-19T08:23:41.301Z,16.50
2023-01-19T08:26:36.321Z,15.53
2023-01-19T08:29:11.249Z,16.07
2023-01-19T08:31:38.447Z,16.67
2023-01-19T08:34:05.670Z,15.13
2023-01-19T08:36:39.269Z,16.47
2023-01-19T08:39:05.900Z,15.60
2023-01-19T08:41:32.643Z,16.63
2023-01-19T08:44:06.264Z,15.77
2023-01-19T08:46:33.074Z,15.30
2023-01-19T08:49:06.308Z,14.70
2023-01-19T08:51:33.023Z,15.67
2023-01-19T08:53:59.621Z,15.00
2023-01-19T08:56:33.186Z,14.40
2023-01-19T08:59:11.319Z,14.77
2023-01-19T09:01:59.309Z,14.43
2023-01-19T09:04:32.301Z,13.67
2023-01-19T09:06:59.039Z,15.53
2023-01-19T09:09:25.636Z,14.67
2023-01-19T09:12:01.202Z,14.57
2023-01-19T09:14:34.203Z,14.77
2023-01-19T09:17:01.010Z,13.73
2023-01-19T09:19:35.169Z,13.70
2023-01-19T09:22:01.881Z,13.73
2023-01-19T09:24:35.190Z,14.03
2023-01-19T09:27:01.838Z,14.40
2023-01-19T09:29:28.483Z,13.90
2023-01-19T09:32:01.282Z,14.63
2023-01-19T09:34:27.913Z,14.87
2023-01-19T09:36:54.863Z,14.37
2023-01-19T09:39:28.319Z,15.43
2023-01-19T09:42:27.118Z,14.90
2023-01-19T09:45:01.280Z,13.70
2023-01-19T09:47:30.796Z,15.67
2023-01-19T09:50:09.275Z,15.40
2023-01-19T09:52:39.539Z,15.03
2023-01-19T09:55:32.272Z,16.67
2023-01-19T09:57:59.300Z,15.33
2023-01-19T10:00:35.297Z,14.23
2023-01-19T10:03:16.576Z,14.10
2023-01-19T10:06:01.264Z,13.30
2023-01-19T10:08:53.183Z,13.83
2023-01-19T10:11:53.089Z,14.90
2023-01-19T10:14:40.006Z,13.87
2023-01-19T10:17:24.225Z,14.90
2023-01-19T10:19:55.264Z,13.97
2023-01-19T10:22:31.183Z,15.43
2023-01-19T10:25:07.368Z,13.27
2023-01-19T10:27:42.259Z,14.33
2023-01-19T10:30:16.588Z,14.20
2023-01-19T10:32:51.257Z,14.10
2023-01-19T10:35:25.108Z,15.37
2023-01-19T10:38:05.253Z,14.05
2023-01-19T10:43:42.204Z,13.70
2023-01-19T10:46:38.579Z,14.33
2023-01-19T10:49:12.242Z,15.38
2023-01-19T10:51:55.263Z,13.75
2023-01-19T10:54:22.919Z,14.23
2023-01-19T10:57:03.285Z,14.07
2023-01-19T10:59:36.606Z,13.70
2023-01-19T11:02:42.307Z,13.55
2023-01-19T11:05:24.767Z,13.10
2023-01-19T11:07:58.178Z,13.35
2023-01-19T11:10:36.180Z,14.82
2023-01-19T11:13:19.231Z,13.90
2023-01-19T11:15:57.471Z,14.82
2023-01-19T11:18:36.254Z,14.23
2023-01-19T11:21:14.897Z,14.52
2023-01-19T11:23:58.231Z,14.40
2023-01-19T11:26:28.956Z,13.45
2023-01-19T11:29:04.262Z,13.90
2023-01-19T11:31:39.293Z,12.48
2023-01-19T11:34:29.175Z,14.18
2023-01-19T11:37:20.829Z,13.63
2023-01-19T11:39:59.171Z,13.57
2023-01-19T11:42:28.131Z,13.75
2023-01-19T11:45:04.195Z,13.13
2023-01-19T11:47:49.709Z,13.15
2023-01-19T11:50:45.244Z,12.77
2023-01-19T11:53:28.178Z,13.38
2023-01-19T11:56:16.254Z,13.15
2023-01-19T11:58:47.904Z,12.90
2023-01-19T12:01:43.408Z,12.27
2023-01-19T12:04:21.244Z,11.60
2023-01-19T12:06:58.215Z,11.73
2023-01-19T12:09:36.211Z,12.57
2023-01-19T12:12:13.219Z,11.90
2023-01-19T12:15:05.392Z,12.18
2023-01-19T12:17:55.279Z,12.10
2023-01-19T12:20:43.182Z,12.23
2023-01-19T12:23:23.626Z,11.98
2023-01-19T12:25:58.232Z,11.77
2023-01-19T12:28:31.705Z,12.43
2023-01-19T12:31:07.343Z,13.45
2023-01-19T12:33:37.545Z,14.48
2023-01-19T12:39:02.178Z,12.68
2023-01-19T12:41:37.215Z,11.68
2023-01-19T12:44:16.418Z,13.30
2023-01-19T12:46:55.323Z,13.57
2023-01-19T12:49:42.480Z,12.05
2023-01-19T12:52:31.213Z,12.07
2023-01-19T12:55:00.694Z,12.98
2023-01-19T12:57:40.347Z,13.35
2023-01-19T13:00:22.296Z,12.60
2023-01-19T13:03:21.226Z,13.07
2023-01-19T13:06:02.171Z,12.60
2023-01-19T13:09:06.167Z,13.18
2023-01-19T13:11:39.187Z,12.88
2023-01-19T13:14:05.764Z,13.68
2023-01-19T13:16:35.248Z,13.38
2023-01-19T13:19:15.178Z,12.80
2023-01-19T13:21:47.561Z,12.57
2023-01-19T13:24:29.167Z,13.30
2023-01-19T13:27:05.206Z,13.98
2023-01-19T13:29:47.182Z,12.73
2023-01-19T13:32:25.260Z,12.43
2023-01-19T13:34:54.648Z,12.32
2023-01-19T13:37:43.163Z,13.27
2023-01-19T13:40:27.154Z,13.05
2023-01-19T13:43:09.380Z,12.65
2023-01-19T13:45:55.229Z,13.52
2023-01-19T13:48:24.124Z,12.55
2023-01-19T13:51:05.173Z,11.65
2023-01-19T13:53:32.490Z,12.77
2023-01-19T13:56:24.331Z,12.68
2023-01-19T13:59:16.301Z,13.35
2023-01-19T14:01:54.189Z,12.63
2023-01-19T14:04:39.177Z,13.23
2023-01-19T14:07:13.016Z,14.20
2023-01-19T14:09:46.166Z,12.35
2023-01-19T14:12:24.214Z,13.73
2023-01-19T14:14:57.159Z,13.40
2023-01-19T14:17:26.076Z,13.65
2023-01-19T14:20:04.251Z,12.82
2023-01-19T14:22:57.208Z,12.85
2023-01-19T14:25:42.260Z,13.57
2023-01-19T14:28:40.182Z,13.57
2023-01-19T14:31:31.229Z,12.73
2023-01-19T14:33:59.281Z,11.80
2023-01-19T14:36:43.151Z,12.60
2023-01-19T14:39:23.205Z,12.70
2023-01-19T14:41:59.217Z,13.25
2023-01-19T14:44:35.850Z,13.68
2023-01-19T14:47:10.243Z,11.98
2023-01-19T14:49:40.258Z,12.85
2023-01-19T14:52:26.168Z,13.43
2023-01-19T14:55:00.228Z,13.35
2023-01-19T14:57:33.269Z,12.75
2023-01-19T15:00:07.299Z,13.70
2023-01-19T15:02:40.244Z,12.88
2023-01-19T15:05:21.199Z,14.07
2023-01-19T15:07:48.077Z,13.75
2023-01-19T15:10:26.245Z,14.25
2023-01-19T15:12:54.432Z,14.68
2023-01-19T15:15:36.194Z,12.68
2023-01-19T15:18:11.179Z,14.75
2023-01-19T15:20:44.171Z,14.55
2023-01-19T15:23:12.020Z,14.77
2023-01-19T15:25:49.177Z,14.23
2023-01-19T15:28:19.012Z,14.60
2023-01-19T15:30:52.211Z,15.98
2023-01-19T15:33:24.380Z,15.30
2023-01-19T15:35:58.247Z,15.38
2023-01-19T15:38:26.489Z,16.67
2023-01-19T15:40:53.207Z,16.38
2023-01-19T15:43:27.195Z,15.02
2023-01-19T15:46:01.709Z,15.90
2023-01-19T15:48:35.213Z,27.02
2023-01-19T15:51:01.856Z,18.10
2023-01-19T15:53:35.232Z,17.00
2023-01-19T15:56:01.888Z,21.52
2023-01-19T15:58:35.254Z,33.42
2023-01-19T16:01:01.947Z,39.63
2023-01-19T16:03:42.239Z,21.92
2023-01-19T16:06:26.277Z,20.05
2023-01-19T16:09:05.201Z,19.65
2023-01-19T16:11:33.814Z,17.67
2023-01-19T16:14:07.191Z,16.90
2023-01-19T16:16:34.006Z,16.90
2023-01-19T16:19:07.231Z,17.17
2023-01-19T16:21:33.931Z,18.15
2023-01-19T16:24:07.284Z,17.77
2023-01-19T16:26:36.562Z,17.95
2023-01-19T16:29:17.166Z,20.08
2023-01-19T16:31:45.485Z,17.98
2023-01-19T16:34:12.297Z,19.10
2023-01-19T16:36:47.190Z,20.15
2023-01-19T16:39:15.242Z,20.50
2023-01-19T16:41:50.224Z,18.50
2023-01-19T16:44:17.401Z,18.65
2023-01-19T16:46:52.483Z,16.98
2023-01-19T16:49:28.653Z,19.40
2023-01-19T16:51:56.018Z,20.05
2023-01-19T16:54:27.898Z,18.45
2023-01-19T16:57:03.262Z,17.75
2023-01-19T16:59:30.008Z,18.48
2023-01-19T17:02:04.241Z,18.02
2023-01-19T17:04:37.242Z,16.33
2023-01-19T17:07:19.099Z,17.90
2023-01-19T17:09:46.159Z,17.67
2023-01-19T17:12:13.236Z,17.58
2023-01-19T17:14:46.178Z,16.38
2023-01-19T17:17:20.147Z,16.33
2023-01-19T17:19:47.008Z,17.83
2023-01-19T17:22:21.225Z,16.90
2023-01-19T17:24:54.166Z,17.92
2023-01-19T17:27:34.223Z,16.33
2023-01-19T17:32:33.934Z,16.15
2023-01-19T17:35:00.551Z,16.98
2023-01-19T17:37:34.165Z,17.20
2023-01-19T17:40:07.159Z,17.48
2023-01-19T17:42:33.790Z,18.38
2023-01-19T17:45:07.278Z,18.50
2023-01-19T17:47:40.275Z,17.05
2023-01-19T17:50:07.234Z,19.63
2023-01-19T17:52:33.898Z,17.52
2023-01-19T17:55:07.147Z,17.48
2023-01-19T17:57:33.973Z,17.25
2023-01-19T18:00:07.212Z,18.98
2023-01-19T18:02:41.207Z,18.10
2023-01-19T18:05:21.139Z,16.95
2023-01-19T18:07:48.051Z,18.15
2023-01-19T18:10:21.222Z,17.60
2023-01-19T18:12:47.931Z,16.90
2023-01-19T18:15:16.810Z,17.45
2023-01-19T18:17:50.160Z,16.73
2023-01-19T18:20:23.158Z,17.38
2023-01-19T18:22:50.054Z,18.63
2023-01-19T18:25:23.229Z,17.05
2023-01-19T18:27:56.298Z,17.05
2023-01-19T18:30:30.250Z,18.77
2023-01-19T18:32:56.913Z,16.60
2023-01-19T18:35:24.103Z,18.63
2023-01-19T18:37:58.154Z,18.75
2023-01-19T18:40:32.178Z,18.23
2023-01-19T18:43:05.236Z,17.67
2023-01-19T18:45:38.263Z,16.92
2023-01-19T18:48:05.387Z,17.20
2023-01-19T18:50:39.147Z,18.58
2023-01-19T18:53:05.733Z,17.98
2023-01-19T18:55:39.137Z,18.13
2023-01-19T18:58:13.224Z,17.33
2023-01-19T19:00:39.812Z,16.85
2023-01-19T19:03:26.239Z,15.98
2023-01-19T19:05:53.117Z,17.40
2023-01-19T19:08:19.755Z,17.13
2023-01-19T19:10:53.157Z,16.77
2023-01-19T19:13:21.781Z,17.85
2023-01-19T19:15:55.175Z,17.80
2023-01-19T19:18:21.888Z,17.50
2023-01-19T19:20:55.120Z,18.02
2023-01-19T19:23:21.734Z,17.77
2023-01-19T19:25:55.190Z,17.77
2023-01-19T19:28:21.823Z,18.35
2023-01-19T19:30:59.290Z,18.65
2023-01-19T19:33:33.203Z,17.73
2023-01-19T19:36:00.422Z,19.98
2023-01-19T19:38:35.372Z,17.77
2023-01-19T19:41:06.047Z,18.83
2023-01-19T19:43:33.802Z,17.75
2023-01-19T19:46:15.159Z,17.77
2023-01-19T19:48:42.151Z,17.95
2023-01-19T19:51:22.278Z,18.02
2023-01-19T19:56:24.209Z,17.52
2023-01-19T19:58:58.163Z,18.50
2023-01-19T20:01:32.048Z,17.85
2023-01-19T20:04:14.204Z,17.92
2023-01-19T20:06:48.433Z,18.65
2023-01-19T20:09:23.161Z,18.85
2023-01-19T20:11:50.076Z,17.80
2023-01-19T20:14:23.163Z,20.17
2023-01-19T20:16:49.929Z,18.10
2023-01-19T20:19:24.133Z,20.02
2023-01-19T20:21:50.784Z,17.98
2023-01-19T20:24:26.147Z,18.15
2023-01-19T20:26:53.791Z,20.48
2023-01-19T20:29:27.349Z,18.45
2023-01-19T20:32:02.135Z,19.60
2023-01-19T20:34:38.214Z,17.85
2023-01-19T20:37:06.131Z,18.65
2023-01-19T20:39:35.231Z,19.73
2023-01-19T20:42:09.226Z,19.33
2023-01-19T20:44:35.981Z,18.95
2023-01-19T20:47:02.641Z,22.15
2023-01-19T20:49:36.124Z,22.40
2023-01-19T20:52:02.766Z,20.17
2023-01-19T20:54:37.130Z,19.60
2023-01-19T20:57:03.807Z,19.45
2023-01-19T20:59:37.130Z,19.05
2023-01-19T21:02:05.945Z,20.20
2023-01-19T21:04:46.234Z,19.33
2023-01-19T21:09:45.822Z,18.80
2023-01-19T21:12:20.249Z,20.63
2023-01-19T21:14:53.142Z,19.63
2023-01-19T21:17:19.752Z,19.33
2023-01-19T21:19:53.175Z,20.13
2023-01-19T21:22:19.765Z,18.88
2023-01-19T21:24:47.210Z,19.30
2023-01-19T21:27:20.116Z,19.42
2023-01-19T21:29:55.139Z,18.98
2023-01-19T21:32:22.039Z,19.08
2023-01-19T21:34:55.143Z,18.02
2023-01-19T21:37:21.759Z,20.35
2023-01-19T21:39:55.110Z,19.25
2023-01-19T21:42:21.708Z,18.02
2023-01-19T21:44:56.231Z,19.02
2023-01-19T21:47:29.219Z,17.83
2023-01-19T21:49:55.883Z,18.75
2023-01-19T21:52:22.619Z,19.30
2023-01-19T21:54:56.255Z,18.55
2023-01-19T21:57:23.108Z,18.40
2023-01-19T21:59:56.237Z,17.98
2023-01-19T22:02:46.885Z,17.77
2023-01-19T22:05:25.198Z,18.25
2023-01-19T22:07:51.848Z,18.20
2023-01-19T22:10:25.168Z,18.02
2023-01-19T22:12:52.011Z,17.45
2023-01-19T22:15:18.743Z,18.80
2023-01-19T22:17:52.133Z,16.95
2023-01-19T22:20:25.196Z,17.63
2023-01-19T22:22:51.857Z,17.35
2023-01-19T22:25:28.094Z,18.90
2023-01-19T22:28:04.123Z,17.25
2023-01-19T22:30:31.069Z,19.35
2023-01-19T22:33:04.198Z,17.83
2023-01-19T22:35:30.796Z,18.90
2023-01-19T22:37:57.440Z,19.42
2023-01-19T22:40:30.179Z,18.17
2023-01-19T22:42:56.829Z,17.95
2023-01-19T22:45:23.697Z,16.55
2023-01-19T22:47:57.195Z,17.40
2023-01-19T22:50:23.786Z,16.92
2023-01-19T22:53:02.121Z,17.50
2023-01-19T22:55:29.966Z,17.30
2023-01-19T22:58:03.277Z,17.63
2023-01-19T23:00:29.901Z,17.65
2023-01-19T23:03:16.189Z,18.42
2023-01-19T23:05:42.868Z,18.25
2023-01-19T23:08:15.540Z,19.02
2023-01-19T23:10:49.165Z,18.95
2023-01-19T23:13:15.777Z,16.95
2023-01-19T23:15:42.405Z,18.77
2023-01-19T23:18:15.114Z,17.10
2023-01-19T23:20:48.139Z,18.58
2023-01-19T23:23:15.028Z,18.65
2023-01-19T23:25:48.332Z,18.67
2023-01-19T23:28:15.014Z,18.17
2023-01-19T23:30:41.764Z,18.02
2023-01-19T23:33:15.346Z,19.17
2023-01-19T23:35:42.001Z,18.45
2023-01-19T23:38:08.596Z,18.33
2023-01-19T23:40:42.238Z,17.55
2023-01-19T23:43:08.865Z,18.83
2023-01-19T23:45:42.193Z,18.35
2023-01-19T23:48:08.828Z,17.75
2023-01-19T23:50:40.594Z,19.55
2023-01-19T23:53:14.120Z,19.23
2023-01-19T23:55:47.101Z,18.80
2023-01-19T23:58:13.763Z,20.75
